createdAt,value
2019-06-07T00:02:05.992Z,8.90
2019-06-07T00:04:36.577Z,8.90
2019-06-07T00:07:09.028Z,8.90
2019-06-07T00:09:39.578Z,9.00
2019-06-07T00:12:12.024Z,9.00
2019-06-07T00:14:43.497Z,9.00
2019-06-07T00:17:15.938Z,9.00
2019-06-07T00:19:46.728Z,8.90
2019-06-07T00:22:30.110Z,8.70
2019-06-07T00:24:50.383Z,8.60
2019-06-07T00:27:22.569Z,8.70
2019-06-07T00:29:53.748Z,8.70
2019-06-07T00:32:24.381Z,8.70
2019-06-07T00:34:55.042Z,8.70
2019-06-07T00:37:25.991Z,8.80
2019-06-07T00:40:13.488Z,8.80
2019-06-07T00:42:29.208Z,8.80
2019-06-07T00:44:59.901Z,8.80
2019-06-07T00:47:31.224Z,9.00
2019-06-07T00:50:02.258Z,9.00
2019-06-07T00:55:05.724Z,9.00
2019-06-07T00:57:36.380Z,9.10
2019-06-07T01:00:09.198Z,9.10
2019-06-07T01:02:39.843Z,9.10
2019-06-07T01:05:10.551Z,9.00
2019-06-07T01:07:41.126Z,8.90
2019-06-07T01:10:14.542Z,9.00
2019-06-07T01:12:46.043Z,9.00
2019-06-07T01:15:20.558Z,9.00
2019-06-07T01:18:32.870Z,8.90
2019-06-07T01:20:26.665Z,8.90
2019-06-07T01:22:56.749Z,8.90
2019-06-07T01:25:28.930Z,8.90
2019-06-07T01:27:59.670Z,8.90
2019-06-07T01:30:30.599Z,8.90
2019-06-07T01:33:01.170Z,8.90
2019-06-07T01:35:31.906Z,9.00
2019-06-07T01:38:02.753Z,8.90
2019-06-07T01:40:33.701Z,8.90
2019-06-07T01:43:04.435Z,8.90
2019-06-07T01:45:35.116Z,9.00
2019-06-07T01:48:05.669Z,8.90
2019-06-07T01:50:36.261Z,9.00
2019-06-07T01:53:07.155Z,9.00
2019-06-07T01:55:37.739Z,9.00
2019-06-07T01:58:09.332Z,8.90
2019-06-07T02:00:39.926Z,9.10
2019-06-07T02:03:10.825Z,9.10
2019-06-07T02:05:42.144Z,9.10
2019-06-07T02:08:12.683Z,8.90
2019-06-07T02:10:44.093Z,8.90
2019-06-07T02:13:14.961Z,8.90
2019-06-07T02:15:46.269Z,8.70
2019-06-07T02:18:16.826Z,8.60
2019-06-07T02:20:48.138Z,8.40
2019-06-07T02:23:20.340Z,8.40
2019-06-07T02:25:51.457Z,8.50
2019-06-07T02:28:30.055Z,8.50
2019-06-07T02:30:59.807Z,8.50
2019-06-07T02:33:33.517Z,8.50
2019-06-07T02:35:59.630Z,8.60
2019-06-07T02:38:35.923Z,8.50
2019-06-07T02:41:02.873Z,8.50
2019-06-07T02:43:37.005Z,8.50
2019-06-07T02:46:25.403Z,8.50
2019-06-07T02:48:44.594Z,8.40
2019-06-07T02:51:15.472Z,8.30
2019-06-07T02:53:46.779Z,8.30
2019-06-07T02:58:49.980Z,8.20
2019-06-07T03:01:20.839Z,8.30
2019-06-07T03:03:51.904Z,8.40
2019-06-07T03:06:23.362Z,8.30
2019-06-07T03:08:55.303Z,8.40
2019-06-07T03:11:28.247Z,8.50
2019-06-07T03:14:00.845Z,8.60
2019-06-07T03:16:39.462Z,8.60
2019-06-07T03:19:17.921Z,8.60
2019-06-07T03:21:49.657Z,8.50
2019-06-07T03:24:23.188Z,8.50
2019-06-07T03:27:34.028Z,8.50
2019-06-07T03:29:28.912Z,8.60
2019-06-07T03:32:00.323Z,8.80
2019-06-07T03:34:38.127Z,9.00
2019-06-07T03:37:03.221Z,9.10
2019-06-07T03:39:36.293Z,9.10
2019-06-07T03:42:08.390Z,9.10
2019-06-07T03:44:41.581Z,9.10
2019-06-07T03:47:11.028Z,9.20
2019-06-07T03:49:42.760Z,9.20
2019-06-07T03:52:13.900Z,9.10
2019-06-07T03:54:44.461Z,9.10
2019-06-07T03:57:15.106Z,9.10
2019-06-07T03:59:45.662Z,9.10
2019-06-07T04:02:16.619Z,9.10
2019-06-07T04:04:48.169Z,8.90
2019-06-07T04:07:18.766Z,9.00
2019-06-07T04:09:49.645Z,9.00
2019-06-07T04:12:20.246Z,9.10
2019-06-07T04:14:50.803Z,9.10
2019-06-07T04:17:21.385Z,9.10
2019-06-07T04:19:52.533Z,9.10
2019-06-07T04:22:23.164Z,9.20
2019-06-07T04:24:53.730Z,9.40
2019-06-07T04:27:24.683Z,9.40
2019-06-07T04:30:07.243Z,9.50
2019-06-07T04:32:29.707Z,9.40
2019-06-07T04:35:01.170Z,9.40
2019-06-07T04:37:33.495Z,9.40
2019-06-07T04:40:06.191Z,9.40
2019-06-07T04:42:41.750Z,9.50
2019-06-07T04:45:32.389Z,9.50
2019-06-07T04:47:43.034Z,9.60
2019-06-07T04:50:14.432Z,9.70
2019-06-07T04:52:45.814Z,9.80
2019-06-07T04:55:16.518Z,9.80
2019-06-07T04:57:47.155Z,9.80
2019-06-07T05:03:02.105Z,9.90
2019-06-07T05:05:34.543Z,10.10
2019-06-07T05:08:07.916Z,10.00
2019-06-07T05:10:41.162Z,10.20
2019-06-07T05:13:10.910Z,10.30
2019-06-07T05:15:42.453Z,10.30
2019-06-07T05:18:13.896Z,10.20
2019-06-07T05:20:44.875Z,10.30
2019-06-07T05:23:58.796Z,10.40
2019-06-07T05:25:47.887Z,10.40
2019-06-07T05:28:18.554Z,10.50
2019-06-07T05:31:06.203Z,10.50
2019-06-07T05:33:21.784Z,10.60
2019-06-07T05:35:52.430Z,10.80
2019-06-07T05:38:23.028Z,10.80
2019-06-07T05:40:54.044Z,11.00
2019-06-07T05:43:27.289Z,11.00
2019-06-07T05:45:58.268Z,11.00
2019-06-07T05:48:28.881Z,11.10
2019-06-07T05:50:59.466Z,11.10
2019-06-07T05:53:31.716Z,11.10
2019-06-07T05:56:03.059Z,11.20
2019-06-07T05:58:35.169Z,11.20
2019-06-07T06:01:41.543Z,11.30
2019-06-07T06:03:40.277Z,11.40
2019-06-07T06:06:11.038Z,11.50
2019-06-07T06:08:42.539Z,11.60
2019-06-07T06:11:14.316Z,11.60
2019-06-07T06:14:06.130Z,11.70
2019-06-07T06:16:17.841Z,11.80
2019-06-07T06:18:49.208Z,11.90
2019-06-07T06:21:20.579Z,12.00
2019-06-07T06:23:53.757Z,12.20
2019-06-07T06:26:23.796Z,12.30
2019-06-07T06:28:54.646Z,12.50
2019-06-07T06:31:25.629Z,12.40
2019-06-07T06:33:56.282Z,12.40
2019-06-07T06:36:27.203Z,12.50
2019-06-07T06:38:57.857Z,12.60
2019-06-07T06:41:28.433Z,12.50
2019-06-07T06:44:00.593Z,12.70
2019-06-07T06:46:38.614Z,12.90
2019-06-07T06:49:04.220Z,12.80
2019-06-07T06:51:35.164Z,12.90
2019-06-07T06:54:05.998Z,12.90
2019-06-07T06:56:36.617Z,13.00
2019-06-07T06:59:37.361Z,13.00
2019-06-07T07:01:39.794Z,13.10
2019-06-07T07:04:13.216Z,12.90
2019-06-07T07:06:45.421Z,12.90
2019-06-07T07:09:16.168Z,13.20
2019-06-07T07:12:04.167Z,13.40
2019-06-07T07:14:19.340Z,13.60
2019-06-07T07:16:54.513Z,13.70
2019-06-07T07:19:22.974Z,13.70
2019-06-07T07:21:55.447Z,13.50
2019-06-07T07:24:26.091Z,13.60
2019-06-07T07:26:58.492Z,13.90
2019-06-07T07:29:29.034Z,14.10
2019-06-07T07:31:59.661Z,14.20
2019-06-07T07:34:36.002Z,14.30
2019-06-07T07:37:02.579Z,14.20
2019-06-07T07:39:33.295Z,14.20
2019-06-07T07:42:20.145Z,14.30
2019-06-07T07:44:36.545Z,14.60
2019-06-07T07:47:07.485Z,14.50
2019-06-07T07:49:38.318Z,14.60
2019-06-07T07:52:08.899Z,14.80
2019-06-07T07:54:39.477Z,15.00
2019-06-07T07:57:10.081Z,15.10
2019-06-07T07:59:47.645Z,15.20
2019-06-07T08:02:13.679Z,15.20
2019-06-07T08:07:17.227Z,14.90
2019-06-07T08:09:50.428Z,15.10
2019-06-07T08:12:20.355Z,15.20
2019-06-07T08:14:53.451Z,15.50
2019-06-07T08:17:23.364Z,15.50
2019-06-07T08:19:57.327Z,15.60
2019-06-07T08:22:26.986Z,15.20
2019-06-07T08:25:02.364Z,15.50
2019-06-07T08:27:30.785Z,15.40
2019-06-07T08:30:25.963Z,15.50
2019-06-07T08:32:33.932Z,16.00
2019-06-07T08:35:06.696Z,15.70
2019-06-07T08:38:15.026Z,15.60
2019-06-07T08:40:12.021Z,15.80
2019-06-07T08:43:02.898Z,16.30
2019-06-07T08:45:16.797Z,16.20
2019-06-07T08:47:47.910Z,16.40
2019-06-07T08:50:20.882Z,16.70
2019-06-07T08:52:56.000Z,16.60
2019-06-07T08:55:23.985Z,16.60
2019-06-07T08:58:02.243Z,16.90
2019-06-07T09:00:45.044Z,16.60
2019-06-07T09:03:04.837Z,16.60
2019-06-07T09:05:32.313Z,16.80
2019-06-07T09:08:28.576Z,17.10
2019-06-07T09:10:38.865Z,17.00
2019-06-07T09:13:11.607Z,17.00
2019-06-07T09:15:42.209Z,16.90
2019-06-07T09:20:50.037Z,17.40
2019-06-07T09:23:20.858Z,17.60
2019-06-07T09:26:02.560Z,17.80
2019-06-07T09:28:24.458Z,17.80
2019-06-07T09:30:57.116Z,17.90
2019-06-07T09:33:27.633Z,18.10
2019-06-07T09:36:00.919Z,18.30
2019-06-07T09:38:31.499Z,18.50
2019-06-07T09:41:05.729Z,18.80
2019-06-07T09:46:12.778Z,18.60
2019-06-07T09:51:19.395Z,18.80
2019-06-07T09:53:45.250Z,18.90
2019-06-07T09:56:15.906Z,18.90
2019-06-07T09:58:51.997Z,18.90
2019-06-07T10:01:19.495Z,19.20
2019-06-07T10:03:50.479Z,19.70
2019-06-07T10:06:21.329Z,19.30
2019-06-07T10:11:25.155Z,19.30
2019-06-07T10:13:56.096Z,19.30
2019-06-07T10:16:26.651Z,19.40
2019-06-07T10:18:59.103Z,19.40
2019-06-07T10:21:29.790Z,19.70
2019-06-07T10:24:01.243Z,20.10
2019-06-07T10:26:32.292Z,20.40
2019-06-07T10:29:04.916Z,20.50
2019-06-07T10:31:35.219Z,20.50
2019-06-07T10:34:06.584Z,20.70
2019-06-07T10:36:37.187Z,20.90
2019-06-07T10:39:09.087Z,20.90
2019-06-07T10:41:40.072Z,20.70
2019-06-07T10:44:11.468Z,20.60
2019-06-07T10:46:42.134Z,20.80
2019-06-07T10:49:12.719Z,20.50
2019-06-07T10:51:43.279Z,20.80
2019-06-07T10:54:25.723Z,21.10
2019-06-07T10:56:46.941Z,21.20
2019-06-07T10:59:17.902Z,21.20
2019-06-07T11:01:48.501Z,21.50
2019-06-07T11:04:19.108Z,21.50
2019-06-07T11:06:49.711Z,21.50
2019-06-07T11:09:20.737Z,22.10
2019-06-07T11:11:51.287Z,22.70
2019-06-07T11:14:22.659Z,22.90
2019-06-07T11:16:53.248Z,23.10
2019-06-07T11:19:24.165Z,23.30
2019-06-07T11:21:55.057Z,22.60
2019-06-07T11:24:26.008Z,22.90
2019-06-07T11:26:56.532Z,23.10
2019-06-07T11:29:27.416Z,23.10
2019-06-07T11:31:57.967Z,23.40
2019-06-07T11:34:28.500Z,23.40
2019-06-07T11:36:59.150Z,23.60
2019-06-07T11:39:30.070Z,23.20
2019-06-07T11:42:00.735Z,23.40
2019-06-07T11:44:31.608Z,23.90
2019-06-07T11:47:02.203Z,24.20
2019-06-07T11:49:32.753Z,23.60
2019-06-07T11:52:03.714Z,23.30
2019-06-07T11:54:34.679Z,23.90
2019-06-07T11:57:06.739Z,24.40
2019-06-07T11:59:38.347Z,24.40
2019-06-07T12:02:09.156Z,24.90
2019-06-07T12:04:39.790Z,25.10
2019-06-07T12:07:13.383Z,24.90
2019-06-07T12:09:55.951Z,24.70
2019-06-07T12:12:16.590Z,24.00
2019-06-07T12:14:47.951Z,24.30
2019-06-07T12:17:19.606Z,24.50
2019-06-07T12:19:51.007Z,24.40
2019-06-07T12:22:21.544Z,24.40
2019-06-07T12:24:52.169Z,24.70
2019-06-07T12:27:24.186Z,24.80
2019-06-07T12:29:54.802Z,24.60
2019-06-07T12:32:25.359Z,24.60
2019-06-07T12:34:55.968Z,25.40
2019-06-07T12:37:42.548Z,26.10
2019-06-07T12:39:59.553Z,26.40
2019-06-07T12:42:30.447Z,26.00
2019-06-07T12:45:01.675Z,25.80
2019-06-07T12:47:32.292Z,26.10
2019-06-07T12:50:02.837Z,25.50
2019-06-07T12:52:33.455Z,25.70
2019-06-07T12:55:04.283Z,26.20
2019-06-07T12:57:34.917Z,26.60
2019-06-07T13:00:07.060Z,27.00
2019-06-07T13:02:37.617Z,27.20
2019-06-07T13:05:08.825Z,27.60
2019-06-07T13:07:39.418Z,27.60
2019-06-07T13:10:10.845Z,27.00
2019-06-07T13:12:44.082Z,26.00
2019-06-07T13:15:18.057Z,25.80
2019-06-07T13:17:47.938Z,26.30
2019-06-07T13:20:20.414Z,27.10
2019-06-07T13:22:51.155Z,27.40
2019-06-07T13:25:25.254Z,27.40
2019-06-07T13:27:54.877Z,27.50
2019-06-07T13:30:25.670Z,27.20
2019-06-07T13:32:56.564Z,27.30
2019-06-07T13:35:29.571Z,28.10
2019-06-07T13:37:59.938Z,28.50
2019-06-07T13:40:30.558Z,28.40
2019-06-07T13:43:01.117Z,27.60
2019-06-07T13:45:32.088Z,27.70
2019-06-07T13:48:02.695Z,28.20
2019-06-07T13:50:33.611Z,28.70
2019-06-07T13:53:04.160Z,28.20
2019-06-07T13:55:35.069Z,27.80
2019-06-07T13:58:06.215Z,27.20
2019-06-07T14:00:36.771Z,28.20
2019-06-07T14:03:07.481Z,28.60
2019-06-07T14:05:38.624Z,28.70
2019-06-07T14:08:09.192Z,27.70
2019-06-07T14:10:39.753Z,27.50
2019-06-07T14:13:10.303Z,28.00
2019-06-07T14:15:40.856Z,28.60
2019-06-07T14:18:11.513Z,29.00
2019-06-07T14:20:42.347Z,29.10
2019-06-07T14:23:13.695Z,28.70
2019-06-07T14:25:44.535Z,28.60
2019-06-07T14:28:15.171Z,28.40
2019-06-07T14:30:45.727Z,29.40
2019-06-07T14:33:16.268Z,29.80
2019-06-07T14:35:47.137Z,29.70
2019-06-07T14:38:17.679Z,29.60
2019-06-07T14:40:48.232Z,29.70
2019-06-07T14:43:19.227Z,29.00
2019-06-07T14:45:50.474Z,28.90
2019-06-07T14:48:21.440Z,30.10
2019-06-07T14:50:52.034Z,30.00
2019-06-07T14:53:24.419Z,29.30
2019-06-07T14:55:55.365Z,29.20
2019-06-07T14:58:27.109Z,29.00
2019-06-07T15:00:58.490Z,28.80
2019-06-07T15:03:30.209Z,29.00
2019-06-07T15:06:01.770Z,29.80
2019-06-07T15:08:34.801Z,29.10
2019-06-07T15:11:05.641Z,28.60
2019-06-07T15:13:36.462Z,29.00
2019-06-07T15:16:08.023Z,29.40
2019-06-07T15:18:38.650Z,29.70
2019-06-07T15:21:09.184Z,30.40
2019-06-07T15:23:40.496Z,30.80
2019-06-07T15:26:11.040Z,30.70
2019-06-07T15:28:42.278Z,30.60
2019-06-07T15:31:12.927Z,30.30
2019-06-07T15:33:44.227Z,30.50
2019-06-07T15:36:15.092Z,29.50
2019-06-07T15:38:45.624Z,29.80
2019-06-07T15:41:16.597Z,30.40
2019-06-07T15:43:47.238Z,30.70
2019-06-07T15:46:18.166Z,31.30
2019-06-07T15:48:48.829Z,31.00
2019-06-07T15:51:20.047Z,31.20
2019-06-07T15:53:51.349Z,31.40
2019-06-07T15:56:22.602Z,31.00
2019-06-07T15:58:53.163Z,30.60
2019-06-07T16:01:24.028Z,30.40
2019-06-07T16:03:55.005Z,30.10
2019-06-07T16:06:26.281Z,30.60
2019-06-07T16:08:57.186Z,30.70
2019-06-07T16:11:28.022Z,30.30
2019-06-07T16:13:59.227Z,31.00
2019-06-07T16:16:30.108Z,29.40
2019-06-07T16:19:01.052Z,28.90
2019-06-07T16:21:31.597Z,29.80
2019-06-07T16:24:02.963Z,29.90
2019-06-07T16:26:34.031Z,29.20
2019-06-07T16:29:05.001Z,29.10
2019-06-07T16:31:36.583Z,29.40
2019-06-07T16:34:07.342Z,29.80
2019-06-07T16:36:38.386Z,29.70
2019-06-07T16:39:10.162Z,28.70
2019-06-07T16:41:40.750Z,27.90
2019-06-07T16:44:11.417Z,27.40
2019-06-07T16:46:42.863Z,27.00
2019-06-07T16:49:13.611Z,26.80
2019-06-07T16:51:45.346Z,26.70
2019-06-07T16:54:16.595Z,26.60
2019-06-07T16:56:49.790Z,26.70
2019-06-07T16:59:19.922Z,26.80
2019-06-07T17:01:50.534Z,27.10
2019-06-07T17:04:21.466Z,27.10
2019-06-07T17:06:52.183Z,27.00
2019-06-07T17:09:23.220Z,26.60
2019-06-07T17:11:54.140Z,26.40
2019-06-07T17:14:25.077Z,26.30
2019-06-07T17:16:55.641Z,26.20
2019-06-07T17:19:26.628Z,26.10
2019-06-07T17:21:58.196Z,25.90
2019-06-07T17:24:29.169Z,25.80
2019-06-07T17:27:00.797Z,25.80
2019-06-07T17:29:31.682Z,25.60
2019-06-07T17:32:03.110Z,25.50
2019-06-07T17:34:34.341Z,25.30
2019-06-07T17:37:05.269Z,25.10
2019-06-07T17:39:35.850Z,25.00
2019-06-07T17:42:06.639Z,25.00
2019-06-07T17:44:37.606Z,24.80
2019-06-07T17:47:08.136Z,24.60
2019-06-07T17:49:38.792Z,24.60
2019-06-07T17:52:09.326Z,24.40
2019-06-07T17:54:41.710Z,24.20
2019-06-07T17:57:12.983Z,24.20
2019-06-07T17:59:44.357Z,24.20
2019-06-07T18:02:15.900Z,24.30
2019-06-07T18:04:47.287Z,24.40
2019-06-07T18:07:19.530Z,23.70
2019-06-07T18:09:51.624Z,22.80
2019-06-07T18:12:22.976Z,22.30
2019-06-07T18:14:54.136Z,22.00
2019-06-07T18:17:34.017Z,21.80
2019-06-07T18:19:57.305Z,21.70
2019-06-07T18:22:27.964Z,21.60
2019-06-07T18:24:59.404Z,21.50
2019-06-07T18:27:30.399Z,21.20
2019-06-07T18:30:10.790Z,21.10
2019-06-07T18:32:33.597Z,21.10
2019-06-07T18:35:04.331Z,21.30
2019-06-07T18:37:34.880Z,21.40
2019-06-07T18:40:06.288Z,21.40
2019-06-07T18:42:37.243Z,21.20
2019-06-07T18:45:08.241Z,20.80
2019-06-07T18:47:39.338Z,20.50
2019-06-07T18:50:10.131Z,19.40
2019-06-07T18:52:42.424Z,18.50
2019-06-07T18:55:13.674Z,17.70
2019-06-07T18:57:44.551Z,17.30
2019-06-07T19:00:16.151Z,17.00
2019-06-07T19:02:47.724Z,16.70
2019-06-07T19:05:20.740Z,16.40
2019-06-07T19:07:52.533Z,16.30
2019-06-07T19:10:23.866Z,16.00
2019-06-07T19:12:55.211Z,15.90
2019-06-07T19:15:27.507Z,15.80
2019-06-07T19:17:58.221Z,15.70
2019-06-07T19:20:29.724Z,15.50
2019-06-07T19:23:00.620Z,15.40
2019-06-07T19:25:31.290Z,15.30
2019-06-07T19:28:02.270Z,15.40
2019-06-07T19:30:32.834Z,15.30
2019-06-07T19:33:03.456Z,15.20
2019-06-07T19:35:34.493Z,15.20
2019-06-07T19:38:05.377Z,15.10
2019-06-07T19:40:35.979Z,15.00
2019-06-07T19:43:07.256Z,14.90
2019-06-07T19:45:38.503Z,14.80
2019-06-07T19:48:09.284Z,14.80
2019-06-07T19:50:40.181Z,14.50
2019-06-07T19:53:11.251Z,14.20
2019-06-07T19:55:41.867Z,13.90
2019-06-07T19:58:12.535Z,13.40
2019-06-07T20:00:43.097Z,13.20
2019-06-07T20:03:14.494Z,12.80
2019-06-07T20:05:45.407Z,12.20
2019-06-07T20:08:15.983Z,12.00
2019-06-07T20:10:47.279Z,11.80
2019-06-07T20:13:19.137Z,11.60
2019-06-07T20:15:50.173Z,11.40
2019-06-07T20:18:20.770Z,11.30
2019-06-07T20:20:51.710Z,11.10
2019-06-07T20:23:22.676Z,10.90
2019-06-07T20:25:53.928Z,10.80
2019-06-07T20:28:25.113Z,10.90
2019-06-07T20:30:55.782Z,10.80
2019-06-07T20:33:26.946Z,11.00
2019-06-07T20:35:58.595Z,11.00
2019-06-07T20:38:29.657Z,11.10
2019-06-07T20:41:01.193Z,11.20
2019-06-07T20:43:32.550Z,11.30
2019-06-07T20:46:05.106Z,11.30
2019-06-07T20:48:36.496Z,11.30
2019-06-07T20:51:08.652Z,11.30
2019-06-07T20:53:39.360Z,11.20
2019-06-07T20:56:10.047Z,11.20
2019-06-07T20:58:40.655Z,11.30
2019-06-07T21:01:11.879Z,11.30
2019-06-07T21:03:42.445Z,11.40
2019-06-07T21:06:13.115Z,11.40
2019-06-07T21:08:43.848Z,11.40
2019-06-07T21:11:14.490Z,11.40
2019-06-07T21:13:45.758Z,11.30
2019-06-07T21:16:16.692Z,11.30
2019-06-07T21:18:47.244Z,11.30
2019-06-07T21:21:17.913Z,11.30
2019-06-07T21:23:48.822Z,11.30
2019-06-07T21:26:20.558Z,11.40
2019-06-07T21:28:51.483Z,11.40
2019-06-07T21:31:22.124Z,11.40
2019-06-07T21:33:53.024Z,11.20
2019-06-07T21:36:24.005Z,10.90
2019-06-07T21:38:55.254Z,10.90
2019-06-07T21:41:26.195Z,10.90
2019-06-07T21:43:57.225Z,11.00
2019-06-07T21:46:28.249Z,10.90
2019-06-07T21:48:58.875Z,10.90
2019-06-07T21:51:29.399Z,10.90
2019-06-07T21:54:00.021Z,10.90
2019-06-07T21:56:30.933Z,10.70
2019-06-07T21:59:02.965Z,10.70
2019-06-07T22:01:37.166Z,10.90
2019-06-07T22:04:09.497Z,10.80
2019-06-07T22:06:41.022Z,10.90
2019-06-07T22:09:12.359Z,10.90
2019-06-07T22:11:43.219Z,10.90
2019-06-07T22:14:14.545Z,10.90
2019-06-07T22:16:46.334Z,11.00
2019-06-07T22:19:17.830Z,11.00
2019-06-07T22:22:01.792Z,11.00
2019-06-07T22:24:21.596Z,11.10
2019-06-07T22:26:53.002Z,11.20
2019-06-07T22:29:23.577Z,11.10
2019-06-07T22:31:54.567Z,11.10
2019-06-07T22:34:25.476Z,11.20
2019-06-07T22:36:56.100Z,11.20
2019-06-07T22:39:27.441Z,11.20
2019-06-07T22:41:58.320Z,11.10
2019-06-07T22:44:29.263Z,11.20
2019-06-07T22:46:59.842Z,11.30
2019-06-07T22:49:30.484Z,11.20
2019-06-07T22:52:08.765Z,11.30
2019-06-07T22:54:34.050Z,11.20
2019-06-07T22:57:10.422Z,11.30
2019-06-07T22:59:41.350Z,11.40
2019-06-07T23:02:12.667Z,11.40
2019-06-07T23:04:43.424Z,11.50
2019-06-07T23:07:14.981Z,11.50
2019-06-07T23:09:45.932Z,11.60
2019-06-07T23:12:17.636Z,11.60
2019-06-07T23:14:48.371Z,11.60
2019-06-07T23:17:20.634Z,11.50
2019-06-07T23:19:51.456Z,11.50
2019-06-07T23:22:23.175Z,11.50
2019-06-07T23:24:53.822Z,11.40
2019-06-07T23:27:24.844Z,11.40
2019-06-07T23:29:55.749Z,11.40
2019-06-07T23:32:26.382Z,11.30
2019-06-07T23:34:56.982Z,11.40
2019-06-07T23:37:28.047Z,11.30
2019-06-07T23:39:59.040Z,11.40
2019-06-07T23:42:30.014Z,11.40
2019-06-07T23:45:00.728Z,11.40
2019-06-07T23:47:31.580Z,11.40
2019-06-07T23:50:02.945Z,11.40
2019-06-07T23:52:33.507Z,11.40
2019-06-07T23:55:04.472Z,11.40
2019-06-07T23:57:35.048Z,11.40
